sensor_id;sensor_type;location;lat;lon;timestamp;P1;durP1;ratioP1;P2;durP2;ratioP2
52124;SDS011;38119;52.710;6.398;2023-12-07T00:01:18;18.42;;;10.20;;
52124;SDS011;38119;52.710;6.398;2023-12-07T00:03:44;18.10;;;10.88;;
52124;SDS011;38119;52.710;6.398;2023-12-07T00:06:09;16.08;;;10.07;;
52124;SDS011;38119;52.710;6.398;2023-12-07T00:08:35;17.25;;;10.43;;
52124;SDS011;38119;52.710;6.398;2023-12-07T00:11:00;17.23;;;10.00;;
52124;SDS011;38119;52.710;6.398;2023-12-07T00:13:26;18.45;;;10.25;;
52124;SDS011;38119;52.710;6.398;2023-12-07T00:15:52;17.33;;;10.77;;
52124;SDS011;38119;52.710;6.398;2023-12-07T00:18:17;18.73;;;10.82;;
52124;SDS011;38119;52.710;6.398;2023-12-07T00:20:44;19.13;;;10.13;;
52124;SDS011;38119;52.710;6.398;2023-12-07T00:23:10;17.67;;;11.10;;
52124;SDS011;38119;52.710;6.398;2023-12-07T00:25:35;19.35;;;11.10;;
52124;SDS011;38119;52.710;6.398;2023-12-07T00:28:02;17.58;;;10.80;;
52124;SDS011;38119;52.710;6.398;2023-12-07T00:30:28;19.58;;;10.23;;
52124;SDS011;38119;52.710;6.398;2023-12-07T00:32:54;16.92;;;10.18;;
52124;SDS011;38119;52.710;6.398;2023-12-07T00:35:20;20.63;;;11.70;;
52124;SDS011;38119;52.710;6.398;2023-12-07T00:37:47;19.50;;;10.50;;
52124;SDS011;38119;52.710;6.398;2023-12-07T00:40:13;20.38;;;10.82;;
52124;SDS011;38119;52.710;6.398;2023-12-07T00:42:39;18.17;;;11.20;;
52124;SDS011;38119;52.710;6.398;2023-12-07T00:45:05;18.42;;;11.45;;
52124;SDS011;38119;52.710;6.398;2023-12-07T00:47:31;18.67;;;11.32;;
52124;SDS011;38119;52.710;6.398;2023-12-07T00:49:56;18.85;;;11.88;;
52124;SDS011;38119;52.710;6.398;2023-12-07T00:52:22;21.10;;;12.30;;
52124;SDS011;38119;52.710;6.398;2023-12-07T00:54:48;19.20;;;11.38;;
52124;SDS011;38119;52.710;6.398;2023-12-07T00:57:13;19.00;;;12.02;;
52124;SDS011;38119;52.710;6.398;2023-12-07T00:59:39;18.73;;;11.07;;
52124;SDS011;38119;52.710;6.398;2023-12-07T01:02:05;21.52;;;11.80;;
52124;SDS011;38119;52.710;6.398;2023-12-07T01:04:31;20.05;;;11.88;;
52124;SDS011;38119;52.710;6.398;2023-12-07T01:06:58;21.00;;;12.63;;
52124;SDS011;38119;52.710;6.398;2023-12-07T01:09:24;19.35;;;11.68;;
52124;SDS011;38119;52.710;6.398;2023-12-07T01:11:50;22.05;;;12.68;;
52124;SDS011;38119;52.710;6.398;2023-12-07T01:14:16;21.63;;;12.20;;
52124;SDS011;38119;52.710;6.398;2023-12-07T01:16:42;24.02;;;12.80;;
52124;SDS011;38119;52.710;6.398;2023-12-07T01:19:09;21.67;;;12.50;;
52124;SDS011;38119;52.710;6.398;2023-12-07T01:21:35;21.35;;;12.20;;
52124;SDS011;38119;52.710;6.398;2023-12-07T01:24:00;21.35;;;12.48;;
52124;SDS011;38119;52.710;6.398;2023-12-07T01:26:27;23.92;;;11.93;;
52124;SDS011;38119;52.710;6.398;2023-12-07T01:28:52;20.20;;;12.20;;
52124;SDS011;38119;52.710;6.398;2023-12-07T01:31:18;19.83;;;12.13;;
52124;SDS011;38119;52.710;6.398;2023-12-07T01:33:44;23.15;;;12.63;;
52124;SDS011;38119;52.710;6.398;2023-12-07T01:36:10;20.98;;;12.00;;
52124;SDS011;38119;52.710;6.398;2023-12-07T01:38:36;22.45;;;13.02;;
52124;SDS011;38119;52.710;6.398;2023-12-07T01:41:02;24.17;;;13.77;;
52124;SDS011;38119;52.710;6.398;2023-12-07T01:43:27;20.25;;;12.15;;
52124;SDS011;38119;52.710;6.398;2023-12-07T01:45:54;23.25;;;13.98;;
52124;SDS011;38119;52.710;6.398;2023-12-07T01:48:22;22.08;;;13.52;;
52124;SDS011;38119;52.710;6.398;2023-12-07T01:50:51;22.27;;;12.80;;
52124;SDS011;38119;52.710;6.398;2023-12-07T01:53:18;22.08;;;13.13;;
52124;SDS011;38119;52.710;6.398;2023-12-07T01:55:46;20.42;;;12.10;;
52124;SDS011;38119;52.710;6.398;2023-12-07T01:58:12;22.67;;;12.75;;
52124;SDS011;38119;52.710;6.398;2023-12-07T02:00:39;24.23;;;13.05;;
52124;SDS011;38119;52.710;6.398;2023-12-07T02:03:05;23.60;;;12.95;;
52124;SDS011;38119;52.710;6.398;2023-12-07T02:05:31;21.08;;;12.60;;
52124;SDS011;38119;52.710;6.398;2023-12-07T02:07:58;20.20;;;12.00;;
52124;SDS011;38119;52.710;6.398;2023-12-07T02:10:23;20.08;;;11.98;;
52124;SDS011;38119;52.710;6.398;2023-12-07T02:12:49;23.88;;;13.43;;
52124;SDS011;38119;52.710;6.398;2023-12-07T02:15:18;24.10;;;12.85;;
52124;SDS011;38119;52.710;6.398;2023-12-07T02:20:36;27.00;;;13.57;;
52124;SDS011;38119;52.710;6.398;2023-12-07T02:23:08;23.98;;;13.48;;
52124;SDS011;38119;52.710;6.398;2023-12-07T02:25:35;21.88;;;12.95;;
52124;SDS011;38119;52.710;6.398;2023-12-07T02:28:16;23.75;;;13.43;;
52124;SDS011;38119;52.710;6.398;2023-12-07T02:30:42;21.98;;;12.52;;
52124;SDS011;38119;52.710;6.398;2023-12-07T02:33:08;23.63;;;13.20;;
52124;SDS011;38119;52.710;6.398;2023-12-07T02:35:35;23.60;;;13.30;;
52124;SDS011;38119;52.710;6.398;2023-12-07T02:38:01;25.17;;;13.18;;
52124;SDS011;38119;52.710;6.398;2023-12-07T02:40:28;23.42;;;12.02;;
52124;SDS011;38119;52.710;6.398;2023-12-07T02:42:54;24.92;;;12.85;;
52124;SDS011;38119;52.710;6.398;2023-12-07T02:45:22;22.83;;;12.68;;
52124;SDS011;38119;52.710;6.398;2023-12-07T02:47:47;21.90;;;11.85;;
52124;SDS011;38119;52.710;6.398;2023-12-07T02:50:13;20.25;;;11.43;;
52124;SDS011;38119;52.710;6.398;2023-12-07T02:52:39;20.70;;;11.95;;
52124;SDS011;38119;52.710;6.398;2023-12-07T02:55:05;22.75;;;11.73;;
52124;SDS011;38119;52.710;6.398;2023-12-07T02:57:31;21.17;;;11.30;;
52124;SDS011;38119;52.710;6.398;2023-12-07T03:00:00;22.17;;;12.57;;
52124;SDS011;38119;52.710;6.398;2023-12-07T03:02:26;19.52;;;12.05;;
52124;SDS011;38119;52.710;6.398;2023-12-07T03:04:52;23.05;;;12.13;;
52124;SDS011;38119;52.710;6.398;2023-12-07T03:07:17;22.25;;;12.48;;
52124;SDS011;38119;52.710;6.398;2023-12-07T03:09:43;21.73;;;12.35;;
52124;SDS011;38119;52.710;6.398;2023-12-07T03:12:08;18.40;;;11.02;;
52124;SDS011;38119;52.710;6.398;2023-12-07T03:14:34;22.02;;;12.60;;
52124;SDS011;38119;52.710;6.398;2023-12-07T03:17:00;25.98;;;12.73;;
52124;SDS011;38119;52.710;6.398;2023-12-07T03:19:25;23.80;;;13.65;;
52124;SDS011;38119;52.710;6.398;2023-12-07T03:21:51;23.67;;;12.90;;
52124;SDS011;38119;52.710;6.398;2023-12-07T03:24:16;22.17;;;12.80;;
52124;SDS011;38119;52.710;6.398;2023-12-07T03:26:42;24.90;;;14.15;;
52124;SDS011;38119;52.710;6.398;2023-12-07T03:29:08;23.48;;;13.15;;
52124;SDS011;38119;52.710;6.398;2023-12-07T03:31:33;22.95;;;13.40;;
52124;SDS011;38119;52.710;6.398;2023-12-07T03:33:59;24.85;;;13.75;;
52124;SDS011;38119;52.710;6.398;2023-12-07T03:36:26;24.27;;;14.23;;
52124;SDS011;38119;52.710;6.398;2023-12-07T03:38:52;25.17;;;12.80;;
52124;SDS011;38119;52.710;6.398;2023-12-07T03:41:17;22.83;;;13.35;;
52124;SDS011;38119;52.710;6.398;2023-12-07T03:43:43;24.95;;;14.45;;
52124;SDS011;38119;52.710;6.398;2023-12-07T03:46:09;26.08;;;14.73;;
52124;SDS011;38119;52.710;6.398;2023-12-07T03:48:35;22.40;;;13.18;;
52124;SDS011;38119;52.710;6.398;2023-12-07T03:51:00;24.42;;;13.48;;
52124;SDS011;38119;52.710;6.398;2023-12-07T03:53:26;25.98;;;13.73;;
52124;SDS011;38119;52.710;6.398;2023-12-07T03:55:52;25.33;;;14.23;;
52124;SDS011;38119;52.710;6.398;2023-12-07T03:58:18;27.10;;;14.65;;
52124;SDS011;38119;52.710;6.398;2023-12-07T04:00:44;23.00;;;13.48;;
52124;SDS011;38119;52.710;6.398;2023-12-07T04:03:10;19.48;;;11.73;;
52124;SDS011;38119;52.710;6.398;2023-12-07T04:05:36;18.70;;;10.73;;
52124;SDS011;38119;52.710;6.398;2023-12-07T04:08:04;20.77;;;12.27;;
52124;SDS011;38119;52.710;6.398;2023-12-07T04:10:30;24.02;;;14.02;;
52124;SDS011;38119;52.710;6.398;2023-12-07T04:12:56;26.95;;;14.50;;
52124;SDS011;38119;52.710;6.398;2023-12-07T04:15:24;27.17;;;15.20;;
52124;SDS011;38119;52.710;6.398;2023-12-07T04:17:50;28.02;;;15.32;;
52124;SDS011;38119;52.710;6.398;2023-12-07T04:20:17;26.15;;;15.57;;
52124;SDS011;38119;52.710;6.398;2023-12-07T04:22:47;24.50;;;14.10;;
52124;SDS011;38119;52.710;6.398;2023-12-07T04:25:12;26.38;;;15.80;;
52124;SDS011;38119;52.710;6.398;2023-12-07T04:27:39;30.70;;;15.30;;
52124;SDS011;38119;52.710;6.398;2023-12-07T04:30:05;25.25;;;15.20;;
52124;SDS011;38119;52.710;6.398;2023-12-07T04:32:34;30.80;;;15.55;;
52124;SDS011;38119;52.710;6.398;2023-12-07T04:35:00;28.38;;;15.40;;
52124;SDS011;38119;52.710;6.398;2023-12-07T04:37:27;29.83;;;16.05;;
52124;SDS011;38119;52.710;6.398;2023-12-07T04:39:52;28.15;;;15.50;;
52124;SDS011;38119;52.710;6.398;2023-12-07T04:42:18;29.17;;;16.00;;
52124;SDS011;38119;52.710;6.398;2023-12-07T04:44:43;29.60;;;16.05;;
52124;SDS011;38119;52.710;6.398;2023-12-07T04:47:09;26.98;;;15.02;;
52124;SDS011;38119;52.710;6.398;2023-12-07T04:49:35;32.92;;;16.92;;
52124;SDS011;38119;52.710;6.398;2023-12-07T04:52:00;27.48;;;15.82;;
52124;SDS011;38119;52.710;6.398;2023-12-07T04:54:26;28.73;;;16.25;;
52124;SDS011;38119;52.710;6.398;2023-12-07T04:56:54;32.35;;;16.65;;
52124;SDS011;38119;52.710;6.398;2023-12-07T04:59:19;31.05;;;16.70;;
52124;SDS011;38119;52.710;6.398;2023-12-07T05:01:46;26.48;;;15.63;;
52124;SDS011;38119;52.710;6.398;2023-12-07T05:04:12;32.20;;;17.10;;
52124;SDS011;38119;52.710;6.398;2023-12-07T05:06:37;29.08;;;16.02;;
52124;SDS011;38119;52.710;6.398;2023-12-07T05:09:03;27.70;;;16.13;;
52124;SDS011;38119;52.710;6.398;2023-12-07T05:11:29;31.52;;;17.05;;
52124;SDS011;38119;52.710;6.398;2023-12-07T05:13:54;29.02;;;16.10;;
52124;SDS011;38119;52.710;6.398;2023-12-07T05:16:21;28.70;;;15.95;;
52124;SDS011;38119;52.710;6.398;2023-12-07T05:18:48;29.92;;;15.77;;
52124;SDS011;38119;52.710;6.398;2023-12-07T05:21:14;30.95;;;15.43;;
52124;SDS011;38119;52.710;6.398;2023-12-07T05:23:39;30.05;;;16.17;;
52124;SDS011;38119;52.710;6.398;2023-12-07T05:26:05;29.45;;;16.45;;
52124;SDS011;38119;52.710;6.398;2023-12-07T05:28:33;29.02;;;16.35;;
52124;SDS011;38119;52.710;6.398;2023-12-07T05:31:01;28.77;;;15.57;;
52124;SDS011;38119;52.710;6.398;2023-12-07T05:33:29;28.52;;;16.30;;
52124;SDS011;38119;52.710;6.398;2023-12-07T05:35:54;28.08;;;15.98;;
52124;SDS011;38119;52.710;6.398;2023-12-07T05:38:20;28.30;;;16.00;;
52124;SDS011;38119;52.710;6.398;2023-12-07T05:40:45;26.13;;;15.70;;
52124;SDS011;38119;52.710;6.398;2023-12-07T05:43:11;29.08;;;15.70;;
52124;SDS011;38119;52.710;6.398;2023-12-07T05:45:36;30.00;;;15.93;;
52124;SDS011;38119;52.710;6.398;2023-12-07T05:48:02;28.50;;;16.73;;
52124;SDS011;38119;52.710;6.398;2023-12-07T05:50:27;27.05;;;14.90;;
52124;SDS011;38119;52.710;6.398;2023-12-07T05:52:53;29.30;;;15.82;;
52124;SDS011;38119;52.710;6.398;2023-12-07T05:55:20;29.15;;;15.93;;
52124;SDS011;38119;52.710;6.398;2023-12-07T05:57:45;27.55;;;14.73;;
52124;SDS011;38119;52.710;6.398;2023-12-07T06:00:11;27.05;;;15.00;;
52124;SDS011;38119;52.710;6.398;2023-12-07T06:02:38;25.52;;;15.25;;
52124;SDS011;38119;52.710;6.398;2023-12-07T06:05:03;28.48;;;15.60;;
52124;SDS011;38119;52.710;6.398;2023-12-07T06:07:30;28.88;;;14.93;;
52124;SDS011;38119;52.710;6.398;2023-12-07T06:09:55;28.35;;;15.18;;
52124;SDS011;38119;52.710;6.398;2023-12-07T06:12:21;25.65;;;14.13;;
52124;SDS011;38119;52.710;6.398;2023-12-07T06:14:47;26.77;;;14.85;;
52124;SDS011;38119;52.710;6.398;2023-12-07T06:17:13;27.30;;;14.80;;
52124;SDS011;38119;52.710;6.398;2023-12-07T06:19:39;28.00;;;14.75;;
52124;SDS011;38119;52.710;6.398;2023-12-07T06:22:05;29.13;;;14.68;;
52124;SDS011;38119;52.710;6.398;2023-12-07T06:24:32;28.48;;;15.68;;
52124;SDS011;38119;52.710;6.398;2023-12-07T06:27:01;24.27;;;13.85;;
52124;SDS011;38119;52.710;6.398;2023-12-07T06:29:27;28.02;;;15.48;;
52124;SDS011;38119;52.710;6.398;2023-12-07T06:31:54;27.45;;;15.55;;
52124;SDS011;38119;52.710;6.398;2023-12-07T06:34:19;27.73;;;15.30;;
52124;SDS011;38119;52.710;6.398;2023-12-07T06:36:45;29.20;;;15.30;;
52124;SDS011;38119;52.710;6.398;2023-12-07T06:39:11;28.98;;;15.88;;
52124;SDS011;38119;52.710;6.398;2023-12-07T06:41:36;28.88;;;15.48;;
52124;SDS011;38119;52.710;6.398;2023-12-07T06:44:02;28.05;;;16.00;;
52124;SDS011;38119;52.710;6.398;2023-12-07T06:46:28;28.48;;;15.50;;
52124;SDS011;38119;52.710;6.398;2023-12-07T06:48:54;32.38;;;16.88;;
52124;SDS011;38119;52.710;6.398;2023-12-07T06:51:20;28.65;;;15.95;;
52124;SDS011;38119;52.710;6.398;2023-12-07T06:53:46;31.83;;;15.63;;
52124;SDS011;38119;52.710;6.398;2023-12-07T06:56:11;29.30;;;15.20;;
52124;SDS011;38119;52.710;6.398;2023-12-07T06:58:37;28.95;;;14.27;;
52124;SDS011;38119;52.710;6.398;2023-12-07T07:01:02;25.55;;;14.73;;
52124;SDS011;38119;52.710;6.398;2023-12-07T07:03:28;29.27;;;15.77;;
52124;SDS011;38119;52.710;6.398;2023-12-07T07:05:54;25.15;;;14.70;;
52124;SDS011;38119;52.710;6.398;2023-12-07T07:08:20;27.65;;;15.70;;
52124;SDS011;38119;52.710;6.398;2023-12-07T07:10:45;30.77;;;15.43;;
52124;SDS011;38119;52.710;6.398;2023-12-07T07:13:14;32.05;;;15.68;;
52124;SDS011;38119;52.710;6.398;2023-12-07T07:15:42;27.48;;;15.70;;
52124;SDS011;38119;52.710;6.398;2023-12-07T07:18:08;26.85;;;14.77;;
52124;SDS011;38119;52.710;6.398;2023-12-07T07:20:34;32.03;;;15.38;;
52124;SDS011;38119;52.710;6.398;2023-12-07T07:23:00;27.95;;;15.10;;
52124;SDS011;38119;52.710;6.398;2023-12-07T07:25:25;30.88;;;15.73;;
52124;SDS011;38119;52.710;6.398;2023-12-07T07:27:51;27.98;;;16.08;;
52124;SDS011;38119;52.710;6.398;2023-12-07T07:30:19;27.60;;;15.65;;
52124;SDS011;38119;52.710;6.398;2023-12-07T07:32:44;30.80;;;17.05;;
52124;SDS011;38119;52.710;6.398;2023-12-07T07:35:10;33.03;;;17.73;;
52124;SDS011;38119;52.710;6.398;2023-12-07T07:37:37;29.02;;;17.17;;
52124;SDS011;38119;52.710;6.398;2023-12-07T07:40:07;31.98;;;16.83;;
52124;SDS011;38119;52.710;6.398;2023-12-07T07:42:36;29.75;;;17.33;;
52124;SDS011;38119;52.710;6.398;2023-12-07T07:45:05;29.98;;;16.80;;
52124;SDS011;38119;52.710;6.398;2023-12-07T07:47:33;27.73;;;16.45;;
52124;SDS011;38119;52.710;6.398;2023-12-07T07:49:59;26.95;;;16.48;;
52124;SDS011;38119;52.710;6.398;2023-12-07T07:52:30;30.65;;;17.38;;
52124;SDS011;38119;52.710;6.398;2023-12-07T07:54:56;27.52;;;16.60;;
52124;SDS011;38119;52.710;6.398;2023-12-07T07:57:21;30.52;;;17.15;;
52124;SDS011;38119;52.710;6.398;2023-12-07T07:59:47;29.23;;;17.15;;
52124;SDS011;38119;52.710;6.398;2023-12-07T08:02:12;29.88;;;17.23;;
52124;SDS011;38119;52.710;6.398;2023-12-07T08:04:38;31.80;;;17.63;;
52124;SDS011;38119;52.710;6.398;2023-12-07T08:07:03;30.65;;;16.92;;
52124;SDS011;38119;52.710;6.398;2023-12-07T08:09:29;32.40;;;17.60;;
52124;SDS011;38119;52.710;6.398;2023-12-07T08:11:55;33.20;;;17.98;;
52124;SDS011;38119;52.710;6.398;2023-12-07T08:14:22;34.22;;;18.98;;
52124;SDS011;38119;52.710;6.398;2023-12-07T08:16:47;32.88;;;18.73;;
52124;SDS011;38119;52.710;6.398;2023-12-07T08:19:13;36.10;;;19.13;;
52124;SDS011;38119;52.710;6.398;2023-12-07T08:21:38;38.03;;;20.58;;
52124;SDS011;38119;52.710;6.398;2023-12-07T08:24:04;34.90;;;18.80;;
52124;SDS011;38119;52.710;6.398;2023-12-07T08:26:31;33.95;;;18.77;;
52124;SDS011;38119;52.710;6.398;2023-12-07T08:28:56;32.92;;;19.05;;
52124;SDS011;38119;52.710;6.398;2023-12-07T08:31:22;36.03;;;19.55;;
52124;SDS011;38119;52.710;6.398;2023-12-07T08:33:49;39.30;;;20.13;;
52124;SDS011;38119;52.710;6.398;2023-12-07T08:36:15;40.67;;;21.17;;
52124;SDS011;38119;52.710;6.398;2023-12-07T08:38:41;49.10;;;21.65;;
52124;SDS011;38119;52.710;6.398;2023-12-07T08:41:07;50.40;;;23.45;;
52124;SDS011;38119;52.710;6.398;2023-12-07T08:43:33;104.78;;;22.67;;
52124;SDS011;38119;52.710;6.398;2023-12-07T08:45:58;66.82;;;22.33;;
52124;SDS011;38119;52.710;6.398;2023-12-07T08:48:28;39.13;;;21.92;;
52124;SDS011;38119;52.710;6.398;2023-12-07T08:50:54;79.35;;;21.83;;
52124;SDS011;38119;52.710;6.398;2023-12-07T08:53:20;39.70;;;20.60;;
52124;SDS011;38119;52.710;6.398;2023-12-07T08:55:45;39.35;;;20.45;;
52124;SDS011;38119;52.710;6.398;2023-12-07T08:58:11;53.42;;;21.02;;
52124;SDS011;38119;52.710;6.398;2023-12-07T09:00:37;71.10;;;20.50;;
52124;SDS011;38119;52.710;6.398;2023-12-07T09:03:03;37.25;;;19.42;;
52124;SDS011;38119;52.710;6.398;2023-12-07T09:05:29;40.00;;;19.10;;
52124;SDS011;38119;52.710;6.398;2023-12-07T09:07:55;42.20;;;19.05;;
52124;SDS011;38119;52.710;6.398;2023-12-07T09:10:21;46.88;;;18.75;;
52124;SDS011;38119;52.710;6.398;2023-12-07T09:12:47;31.50;;;17.98;;
52124;SDS011;38119;52.710;6.398;2023-12-07T09:15:13;34.55;;;19.13;;
52124;SDS011;38119;52.710;6.398;2023-12-07T09:17:39;31.27;;;18.33;;
52124;SDS011;38119;52.710;6.398;2023-12-07T09:20:06;46.20;;;19.00;;
52124;SDS011;38119;52.710;6.398;2023-12-07T09:22:40;37.17;;;17.60;;
52124;SDS011;38119;52.710;6.398;2023-12-07T09:25:10;32.10;;;18.08;;
52124;SDS011;38119;52.710;6.398;2023-12-07T09:27:36;33.85;;;18.20;;
52124;SDS011;38119;52.710;6.398;2023-12-07T09:30:09;42.58;;;18.63;;
52124;SDS011;38119;52.710;6.398;2023-12-07T09:32:36;41.65;;;18.98;;
52124;SDS011;38119;52.710;6.398;2023-12-07T09:35:06;27.48;;;16.77;;
52124;SDS011;38119;52.710;6.398;2023-12-07T09:37:33;29.95;;;17.52;;
52124;SDS011;38119;52.710;6.398;2023-12-07T09:39:59;27.13;;;16.05;;
52124;SDS011;38119;52.710;6.398;2023-12-07T09:42:25;67.00;;;17.30;;
52124;SDS011;38119;52.710;6.398;2023-12-07T09:44:51;40.30;;;16.00;;
52124;SDS011;38119;52.710;6.398;2023-12-07T09:47:17;65.55;;;17.00;;
52124;SDS011;38119;52.710;6.398;2023-12-07T09:49:43;49.55;;;18.23;;
52124;SDS011;38119;52.710;6.398;2023-12-07T09:52:09;31.25;;;16.95;;
52124;SDS011;38119;52.710;6.398;2023-12-07T09:54:40;41.15;;;17.38;;
52124;SDS011;38119;52.710;6.398;2023-12-07T09:57:06;28.77;;;16.73;;
52124;SDS011;38119;52.710;6.398;2023-12-07T09:59:34;29.42;;;16.95;;
52124;SDS011;38119;52.710;6.398;2023-12-07T10:02:01;56.72;;;18.85;;
52124;SDS011;38119;52.710;6.398;2023-12-07T10:04:27;30.88;;;18.23;;
52124;SDS011;38119;52.710;6.398;2023-12-07T10:06:52;39.22;;;18.30;;
52124;SDS011;38119;52.710;6.398;2023-12-07T10:09:19;37.17;;;18.33;;
52124;SDS011;38119;52.710;6.398;2023-12-07T10:11:46;30.75;;;18.08;;
52124;SDS011;38119;52.710;6.398;2023-12-07T10:14:12;41.38;;;18.65;;
52124;SDS011;38119;52.710;6.398;2023-12-07T10:16:38;28.92;;;17.25;;
52124;SDS011;38119;52.710;6.398;2023-12-07T10:19:13;25.63;;;16.90;;
52124;SDS011;38119;52.710;6.398;2023-12-07T10:21:42;30.20;;;17.60;;
52124;SDS011;38119;52.710;6.398;2023-12-07T10:24:08;70.15;;;19.17;;
52124;SDS011;38119;52.710;6.398;2023-12-07T10:26:35;29.83;;;18.02;;
52124;SDS011;38119;52.710;6.398;2023-12-07T10:29:07;46.95;;;19.25;;
52124;SDS011;38119;52.710;6.398;2023-12-07T10:31:33;34.72;;;19.02;;
52124;SDS011;38119;52.710;6.398;2023-12-07T10:33:59;32.33;;;19.42;;
52124;SDS011;38119;52.710;6.398;2023-12-07T10:36:26;36.95;;;18.30;;
52124;SDS011;38119;52.710;6.398;2023-12-07T10:38:52;33.70;;;19.50;;
52124;SDS011;38119;52.710;6.398;2023-12-07T10:41:19;36.03;;;21.13;;
52124;SDS011;38119;52.710;6.398;2023-12-07T10:43:47;35.50;;;20.05;;
52124;SDS011;38119;52.710;6.398;2023-12-07T10:46:16;86.57;;;20.63;;
52124;SDS011;38119;52.710;6.398;2023-12-07T10:48:44;37.17;;;19.33;;
52124;SDS011;38119;52.710;6.398;2023-12-07T10:51:13;32.72;;;19.75;;
52124;SDS011;38119;52.710;6.398;2023-12-07T10:53:48;75.13;;;20.05;;
52124;SDS011;38119;52.710;6.398;2023-12-07T10:56:16;47.40;;;19.35;;
52124;SDS011;38119;52.710;6.398;2023-12-07T10:58:55;93.32;;;20.95;;
52124;SDS011;38119;52.710;6.398;2023-12-07T11:01:22;30.02;;;17.80;;
52124;SDS011;38119;52.710;6.398;2023-12-07T11:03:51;32.00;;;19.48;;
52124;SDS011;38119;52.710;6.398;2023-12-07T11:06:18;33.28;;;18.23;;
52124;SDS011;38119;52.710;6.398;2023-12-07T11:08:51;30.33;;;18.05;;
52124;SDS011;38119;52.710;6.398;2023-12-07T11:11:24;33.75;;;18.95;;
52124;SDS011;38119;52.710;6.398;2023-12-07T11:14:08;30.73;;;18.30;;
52124;SDS011;38119;52.710;6.398;2023-12-07T11:16:41;33.10;;;19.00;;
52124;SDS011;38119;52.710;6.398;2023-12-07T11:22:04;37.70;;;18.00;;
52124;SDS011;38119;52.710;6.398;2023-12-07T11:24:31;49.03;;;19.02;;
52124;SDS011;38119;52.710;6.398;2023-12-07T11:26:57;43.03;;;18.30;;
52124;SDS011;38119;52.710;6.398;2023-12-07T11:29:28;29.40;;;18.17;;
52124;SDS011;38119;52.710;6.398;2023-12-07T11:32:04;32.15;;;18.90;;
52124;SDS011;38119;52.710;6.398;2023-12-07T11:34:38;32.03;;;18.83;;
52124;SDS011;38119;52.710;6.398;2023-12-07T11:37:05;39.53;;;18.67;;
52124;SDS011;38119;52.710;6.398;2023-12-07T11:39:35;35.40;;;20.02;;
52124;SDS011;38119;52.710;6.398;2023-12-07T11:44:56;30.30;;;19.00;;
52124;SDS011;38119;52.710;6.398;2023-12-07T11:47:22;51.35;;;20.13;;
52124;SDS011;38119;52.710;6.398;2023-12-07T11:49:47;34.42;;;21.25;;
52124;SDS011;38119;52.710;6.398;2023-12-07T11:52:14;40.40;;;20.60;;
52124;SDS011;38119;52.710;6.398;2023-12-07T11:54:46;47.83;;;20.15;;
52124;SDS011;38119;52.710;6.398;2023-12-07T11:57:16;44.20;;;21.27;;
52124;SDS011;38119;52.710;6.398;2023-12-07T11:59:46;40.20;;;22.35;;
52124;SDS011;38119;52.710;6.398;2023-12-07T12:02:14;51.15;;;22.63;;
52124;SDS011;38119;52.710;6.398;2023-12-07T12:04:40;46.85;;;21.60;;
52124;SDS011;38119;52.710;6.398;2023-12-07T12:07:06;42.75;;;21.13;;
52124;SDS011;38119;52.710;6.398;2023-12-07T12:09:33;38.15;;;21.55;;
52124;SDS011;38119;52.710;6.398;2023-12-07T12:11:59;48.63;;;20.83;;
52124;SDS011;38119;52.710;6.398;2023-12-07T12:14:25;38.50;;;21.33;;
52124;SDS011;38119;52.710;6.398;2023-12-07T12:16:52;35.25;;;19.75;;
52124;SDS011;38119;52.710;6.398;2023-12-07T12:19:18;37.33;;;20.33;;
52124;SDS011;38119;52.710;6.398;2023-12-07T12:21:44;49.03;;;21.08;;
52124;SDS011;38119;52.710;6.398;2023-12-07T12:24:10;38.80;;;19.80;;
52124;SDS011;38119;52.710;6.398;2023-12-07T12:26:37;41.53;;;21.63;;
52124;SDS011;38119;52.710;6.398;2023-12-07T12:29:06;41.17;;;20.23;;
52124;SDS011;38119;52.710;6.398;2023-12-07T12:31:33;54.95;;;22.25;;
52124;SDS011;38119;52.710;6.398;2023-12-07T12:34:02;43.85;;;20.75;;
52124;SDS011;38119;52.710;6.398;2023-12-07T12:36:30;40.65;;;21.60;;
52124;SDS011;38119;52.710;6.398;2023-12-07T12:38:56;44.22;;;21.80;;
52124;SDS011;38119;52.710;6.398;2023-12-07T12:41:22;43.15;;;22.08;;
52124;SDS011;38119;52.710;6.398;2023-12-07T12:43:48;41.47;;;20.85;;
52124;SDS011;38119;52.710;6.398;2023-12-07T12:46:15;41.75;;;20.90;;
52124;SDS011;38119;52.710;6.398;2023-12-07T12:48:57;41.20;;;20.45;;
52124;SDS011;38119;52.710;6.398;2023-12-07T12:51:28;43.70;;;21.23;;
52124;SDS011;38119;52.710;6.398;2023-12-07T12:53:58;43.25;;;20.65;;
52124;SDS011;38119;52.710;6.398;2023-12-07T12:56:24;45.97;;;21.15;;
52124;SDS011;38119;52.710;6.398;2023-12-07T12:58:52;42.45;;;21.02;;
52124;SDS011;38119;52.710;6.398;2023-12-07T13:01:21;42.88;;;22.05;;
52124;SDS011;38119;52.710;6.398;2023-12-07T13:03:47;41.63;;;21.30;;
52124;SDS011;38119;52.710;6.398;2023-12-07T13:06:13;45.00;;;21.33;;
52124;SDS011;38119;52.710;6.398;2023-12-07T13:08:43;43.25;;;21.60;;
52124;SDS011;38119;52.710;6.398;2023-12-07T13:11:09;45.03;;;21.40;;
52124;SDS011;38119;52.710;6.398;2023-12-07T13:13:43;47.70;;;23.10;;
52124;SDS011;38119;52.710;6.398;2023-12-07T13:16:10;46.33;;;21.60;;
52124;SDS011;38119;52.710;6.398;2023-12-07T13:18:37;46.45;;;22.17;;
52124;SDS011;38119;52.710;6.398;2023-12-07T13:21:03;44.88;;;23.13;;
52124;SDS011;38119;52.710;6.398;2023-12-07T13:23:30;50.72;;;22.10;;
52124;SDS011;38119;52.710;6.398;2023-12-07T13:25:56;51.72;;;23.33;;
52124;SDS011;38119;52.710;6.398;2023-12-07T13:28:21;48.65;;;22.15;;
52124;SDS011;38119;52.710;6.398;2023-12-07T13:30:48;52.42;;;22.95;;
52124;SDS011;38119;52.710;6.398;2023-12-07T13:33:14;48.45;;;22.23;;
52124;SDS011;38119;52.710;6.398;2023-12-07T13:35:39;48.00;;;22.08;;
52124;SDS011;38119;52.710;6.398;2023-12-07T13:38:05;49.92;;;23.13;;
52124;SDS011;38119;52.710;6.398;2023-12-07T13:40:30;53.95;;;24.25;;
52124;SDS011;38119;52.710;6.398;2023-12-07T13:42:56;54.35;;;22.35;;
52124;SDS011;38119;52.710;6.398;2023-12-07T13:45:21;54.35;;;23.73;;
52124;SDS011;38119;52.710;6.398;2023-12-07T13:47:47;53.38;;;23.55;;
52124;SDS011;38119;52.710;6.398;2023-12-07T13:50:17;49.83;;;21.77;;
52124;SDS011;38119;52.710;6.398;2023-12-07T13:52:43;50.35;;;23.25;;
52124;SDS011;38119;52.710;6.398;2023-12-07T13:55:08;51.47;;;22.27;;
52124;SDS011;38119;52.710;6.398;2023-12-07T13:57:34;59.95;;;23.20;;
52124;SDS011;38119;52.710;6.398;2023-12-07T14:00:00;54.08;;;22.85;;
52124;SDS011;38119;52.710;6.398;2023-12-07T14:02:25;57.65;;;23.83;;
52124;SDS011;38119;52.710;6.398;2023-12-07T14:04:51;59.30;;;23.90;;
52124;SDS011;38119;52.710;6.398;2023-12-07T14:07:17;66.50;;;25.13;;
52124;SDS011;38119;52.710;6.398;2023-12-07T14:09:46;62.42;;;24.60;;
52124;SDS011;38119;52.710;6.398;2023-12-07T14:12:14;66.80;;;26.00;;
52124;SDS011;38119;52.710;6.398;2023-12-07T14:14:41;73.47;;;27.05;;
52124;SDS011;38119;52.710;6.398;2023-12-07T14:17:09;65.40;;;25.70;;
52124;SDS011;38119;52.710;6.398;2023-12-07T14:19:35;66.60;;;25.65;;
52124;SDS011;38119;52.710;6.398;2023-12-07T14:22:01;62.53;;;25.55;;
52124;SDS011;38119;52.710;6.398;2023-12-07T14:24:27;65.40;;;26.83;;
52124;SDS011;38119;52.710;6.398;2023-12-07T14:26:55;77.22;;;27.88;;